Chalgrove, United Kingdom
Current Conditions -  °F | °C
As of 9:50 AM on Sunday 25 Jan 2015 (Local Time) from EGUB Reporting Station
Broken Clouds Broken Clouds  
Wind Chill: 34°   Ceiling: 3200
Heat Index: 39°   Visibility: 6mi
Dew Point: 34°   Wind: 7mph
Humidity: 81%   Direction: 210°SSW
Pressure: 30.45"   Gusts: NA
Location:  51.66°N, 1.08°W
Report Text: EGUB 250950Z 21006KT 9999 BKN032 04/01 Q1031 BLU NOSIG
Loading
Personal Weather Stations






























Interactive Weather Map New forecast layout! Learn more

10-Day Weather Forecast

Advertisements
Track Severe Weather on mobile